Terminal Aerodrome Forecast
Issued by NWS

Home | Current Version | Previous Version | Text Only | Print | Product List | Glossary On
Versions: 1 2 3 4 5 6 7 8 9 10 11 12 13 14 15 16
972
FTAK31 PAJN 242330
TAFAGY
TAF
PAGY 242330Z 2500/2524 21015G25KT P6SM SCT060
     FM250400 21010KT P6SM VCSH SCT030 OVC060
     FM250900 VRB05KT 5SM -SN BR BKN030 OVC050
     FM251500 02015KT P6SM VCSH SCT030 SCT080
      AMD LTD TO CLD VIS AND WIND=

USA.gov is the U.S. government's official web portal to all federal, state and local government web resources and services.